Time;durP1;ratioP1;P1;durP2;ratioP2;P2;SDS_P1;SDS_P2;PMS_P1;PMS_P2;Temp;Humidity;BMP_temperature;BMP_pressure;BME280_temperature;BME280_humidity;BME280_pressure;Samples;Min_cycle;Max_cycle;Signal;HPM_P1;HPM_P2
2020/12/05 00:00:38;;;;;;;15.23;12.10;;;3.40;99.90;;;;;;5071251;28;20967;-61
2020/12/05 00:03:04;;;;;;;13.50;12.23;;;3.40;99.90;;;;;;5071563;28;20441;-62
2020/12/05 00:05:31;;;;;;;13.37;12.13;;;3.40;99.90;;;;;;5071434;28;20439;-63
2020/12/05 00:07:58;;;;;;;12.10;11.00;;;3.40;99.90;;;;;;5071463;28;20439;-61
2020/12/05 00:10:24;;;;;;;10.67;9.63;;;3.40;99.90;;;;;;5071332;28;20459;-61
2020/12/05 00:12:50;;;;;;;11.70;10.70;;;3.40;99.90;;;;;;5071336;28;20443;-59
2020/12/05 00:15:16;;;;;;;13.23;11.03;;;3.40;99.90;;;;;;5071341;28;20435;-59
2020/12/05 00:17:43;;;;;;;16.00;10.87;;;3.50;99.90;;;;;;5071401;28;20486;-61
2020/12/05 00:20:09;;;;;;;12.23;11.10;;;3.40;99.90;;;;;;5071036;28;20466;-58
2020/12/05 00:22:36;;;;;;;12.47;11.13;;;3.50;99.90;;;;;;5071474;28;20440;-63
2020/12/05 00:25:02;;;;;;;13.80;12.50;;;3.50;99.90;;;;;;5072327;28;20439;-58
2020/12/05 00:27:29;;;;;;;14.50;13.10;;;3.60;99.90;;;;;;5072364;28;20439;-59
2020/12/05 00:29:55;;;;;;;13.80;12.50;;;3.70;99.90;;;;;;5072302;28;20455;-58
2020/12/05 00:32:22;;;;;;;13.07;11.77;;;3.80;99.90;;;;;;5071554;28;20444;-65
2020/12/05 00:34:48;;;;;;;12.40;11.23;;;3.90;99.90;;;;;;5074240;28;20469;-65
2020/12/05 00:37:14;;;;;;;12.77;11.30;;;4.00;99.90;;;;;;5075114;28;20928;-63
2020/12/05 00:39:41;;;;;;;11.67;10.50;;;4.10;99.90;;;;;;5074933;28;20467;-63
2020/12/05 00:42:08;;;;;;;12.17;11.00;;;4.10;99.90;;;;;;5074937;28;20824;-64
2020/12/05 00:44:34;;;;;;;12.73;11.57;;;4.10;99.90;;;;;;5074905;28;20442;-63
2020/12/05 00:47:00;;;;;;;10.93;9.97;;;4.20;99.90;;;;;;5074950;28;20435;-64
2020/12/05 00:49:26;;;;;;;11.07;10.00;;;4.30;99.90;;;;;;5074862;28;20455;-62
2020/12/05 00:51:52;;;;;;;10.47;9.40;;;4.40;99.90;;;;;;5074572;28;20439;-64
2020/12/05 00:54:19;;;;;;;10.23;9.00;;;4.50;99.90;;;;;;5074735;28;20435;-64
2020/12/05 00:56:46;;;;;;;11.20;9.30;;;4.50;99.90;;;;;;5074830;28;20434;-64
2020/12/05 00:59:12;;;;;;;10.63;9.67;;;4.60;99.90;;;;;;5074420;28;20510;-65
2020/12/05 01:01:38;;;;;;;10.03;9.13;;;4.70;99.90;;;;;;5074444;28;20442;-64
2020/12/05 01:04:04;;;;;;;11.57;9.77;;;4.70;99.90;;;;;;5074687;28;20439;-65
2020/12/05 01:06:31;;;;;;;9.23;8.43;;;4.70;99.90;;;;;;5074497;28;20481;-64
2020/12/05 01:08:57;;;;;;;12.63;10.30;;;4.70;99.90;;;;;;5074357;28;20455;-64
2020/12/05 01:11:23;;;;;;;10.20;9.20;;;4.80;99.90;;;;;;5074396;28;20446;-65
2020/12/05 01:13:50;;;;;;;9.23;8.43;;;4.90;99.90;;;;;;5074450;28;20458;-62
2020/12/05 01:16:18;;;;;;;9.93;9.10;;;4.90;99.90;;;;;;5074513;28;20803;-66
2020/12/05 01:18:45;;;;;;;10.20;9.20;;;4.90;99.90;;;;;;5074237;28;20489;-61
2020/12/05 01:21:12;;;;;;;9.37;8.57;;;4.90;99.90;;;;;;5074029;28;20445;-66
2020/12/05 01:23:39;;;;;;;9.03;8.23;;;4.90;99.90;;;;;;5074265;28;20431;-64
2020/12/05 01:26:06;;;;;;;10.30;9.50;;;4.90;99.90;;;;;;5074384;28;20439;-65
2020/12/05 01:28:33;;;;;;;12.70;9.73;;;4.90;99.90;;;;;;5074038;28;20466;-64
2020/12/05 01:31:00;;;;;;;10.77;9.67;;;4.90;99.90;;;;;;5074074;28;20443;-64
2020/12/05 01:33:27;;;;;;;9.27;8.57;;;5.00;99.90;;;;;;5074100;28;20439;-62
2020/12/05 01:35:53;;;;;;;11.00;9.80;;;5.00;99.90;;;;;;5074120;28;20467;-63
2020/12/05 01:38:19;;;;;;;10.33;8.80;;;5.00;99.90;;;;;;5073748;28;20840;-64
2020/12/05 01:40:53;;;;;;;9.73;8.83;;;5.00;99.90;;;;;;5082368;22;20488;-65
2020/12/05 01:43:20;;;;;;;9.83;8.83;;;5.00;99.90;;;;;;5053803;28;20436;-65
2020/12/05 01:45:47;;;;;;;14.33;13.00;;;5.00;99.90;;;;;;5053786;28;20801;-65
2020/12/05 01:48:16;;;;;;;9.83;8.83;;;5.00;99.90;;;;;;5053712;28;20936;-64
2020/12/05 01:50:43;;;;;;;10.30;9.30;;;5.00;99.90;;;;;;5053560;28;20530;-66
2020/12/05 01:53:09;;;;;;;11.20;10.30;;;5.00;99.90;;;;;;5053758;28;20447;-65
2020/12/05 01:55:36;;;;;;;10.13;9.17;;;4.90;99.90;;;;;;5053656;28;20440;-65
2020/12/05 01:58:03;;;;;;;10.67;9.13;;;4.90;99.90;;;;;;5053645;28;20934;-65
2020/12/05 02:00:29;;;;;;;15.83;9.17;;;4.90;99.90;;;;;;5053236;28;20460;-66
2020/12/05 02:02:56;;;;;;;10.00;9.00;;;4.90;99.90;;;;;;5053407;28;20436;-66
2020/12/05 02:05:33;;;;;;;11.53;10.20;;;4.90;99.90;;;;;;5053583;28;20444;-63
2020/12/05 02:08:04;;;;;;;10.37;9.40;;;4.90;99.90;;;;;;5053449;28;20473;-65
2020/12/05 02:10:38;;;;;;;10.60;9.50;;;4.90;99.90;;;;;;5053012;28;20456;-65
2020/12/05 02:13:11;;;;;;;11.30;10.33;;;4.80;99.90;;;;;;5053460;28;20452;-65
2020/12/05 02:15:38;;;;;;;10.83;9.77;;;4.80;99.90;;;;;;5053368;28;20437;-66
2020/12/05 02:18:06;;;;;;;10.80;9.77;;;4.80;99.90;;;;;;5053222;28;20472;-65
2020/12/05 02:20:37;;;;;;;11.20;10.20;;;4.70;99.90;;;;;;5052846;28;20546;-64
2020/12/05 02:23:09;;;;;;;13.30;12.00;;;4.80;99.90;;;;;;5053240;28;20444;-65
2020/12/05 02:25:35;;;;;;;13.23;11.27;;;4.80;99.90;;;;;;5053221;28;20436;-65
2020/12/05 02:28:05;;;;;;;10.47;9.40;;;4.80;99.90;;;;;;5052982;28;20440;-66
2020/12/05 02:30:33;;;;;;;13.50;12.10;;;4.80;99.90;;;;;;5052737;28;20506;-65
2020/12/05 02:32:59;;;;;;;14.77;13.20;;;4.80;99.90;;;;;;5053061;28;20448;-65
2020/12/05 02:35:26;;;;;;;14.63;13.13;;;4.70;99.90;;;;;;5052925;28;20454;-65
2020/12/05 02:37:57;;;;;;;14.53;13.00;;;4.70;99.90;;;;;;5052780;28;20494;-64
2020/12/05 02:40:24;;;;;;;12.90;11.60;;;4.80;99.90;;;;;;5052390;28;20984;-65
2020/12/05 02:42:50;;;;;;;14.17;12.50;;;4.70;99.90;;;;;;5052675;28;20436;-66
2020/12/05 02:45:18;;;;;;;13.43;12.13;;;4.70;99.90;;;;;;5052903;28;20797;-65
2020/12/05 02:47:44;;;;;;;14.37;12.87;;;4.80;99.90;;;;;;5052629;28;20440;-64
2020/12/05 02:50:10;;;;;;;14.80;12.50;;;4.80;99.90;;;;;;5052381;28;20457;-65
2020/12/05 02:52:36;;;;;;;17.07;14.63;;;4.80;99.90;;;;;;5052580;28;20447;-65
2020/12/05 02:55:03;;;;;;;14.33;12.93;;;4.80;99.90;;;;;;5052552;28;20444;-65
2020/12/05 02:57:30;;;;;;;14.17;12.67;;;4.80;99.90;;;;;;5051704;28;20441;-65
2020/12/05 02:59:56;;;;;;;14.07;12.63;;;4.80;99.90;;;;;;5052221;28;20465;-65
2020/12/05 03:02:22;;;;;;;15.93;14.33;;;4.80;99.90;;;;;;5052351;28;20447;-65
2020/12/05 03:04:48;;;;;;;17.30;15.00;;;4.90;99.90;;;;;;5052356;28;20444;-64
2020/12/05 03:07:15;;;;;;;15.57;13.90;;;4.90;99.90;;;;;;5052280;28;20482;-63
2020/12/05 03:09:42;;;;;;;15.40;13.60;;;4.90;99.90;;;;;;5051927;28;20467;-64
2020/12/05 03:12:08;;;;;;;15.67;14.07;;;4.90;99.90;;;;;;5052206;28;20989;-64
2020/12/05 03:14:35;;;;;;;17.20;14.30;;;4.90;99.90;;;;;;5052110;28;20926;-65
2020/12/05 03:17:01;;;;;;;17.37;15.03;;;4.90;99.90;;;;;;5052205;28;20519;-62
2020/12/05 03:19:27;;;;;;;16.83;14.13;;;4.90;99.90;;;;;;5051722;28;21055;-64
2020/12/05 03:21:54;;;;;;;16.10;13.93;;;4.90;99.90;;;;;;5051796;28;20521;-65
2020/12/05 03:24:20;;;;;;;15.60;13.90;;;4.90;99.90;;;;;;5052016;28;20463;-65
2020/12/05 03:26:46;;;;;;;16.90;15.33;;;4.90;99.90;;;;;;5052141;28;20813;-63
2020/12/05 03:29:13;;;;;;;16.73;14.53;;;4.90;99.90;;;;;;5051931;28;20454;-63
2020/12/05 03:34:23;;;;;;;20.67;17.57;;;4.90;99.90;;;;;;5051675;28;20439;-63
2020/12/05 03:36:49;;;;;;;17.57;15.73;;;4.90;99.90;;;;;;5051864;28;20446;-63
2020/12/05 03:39:16;;;;;;;18.67;15.73;;;4.90;99.90;;;;;;5051594;28;20495;-60
2020/12/05 03:41:42;;;;;;;22.23;16.53;;;4.90;99.90;;;;;;5051660;28;20547;-62
2020/12/05 03:44:09;;;;;;;22.40;17.83;;;4.90;99.90;;;;;;5051607;28;20948;-63
2020/12/05 03:46:35;;;;;;;22.53;19.63;;;4.90;99.90;;;;;;5051811;28;20436;-63
2020/12/05 03:49:04;;;;;;;19.60;17.30;;;4.90;99.90;;;;;;5051789;28;20445;-63
2020/12/05 03:51:30;;;;;;;24.20;17.80;;;5.00;99.90;;;;;;5051676;28;20444;-64
2020/12/05 03:53:56;;;;;;;21.87;18.83;;;4.90;99.90;;;;;;5051499;28;20467;-64
2020/12/05 03:56:23;;;;;;;21.80;18.17;;;4.90;99.90;;;;;;5051707;28;20436;-68
2020/12/05 03:58:51;;;;;;;23.97;16.93;;;5.00;99.90;;;;;;5051647;28;20484;-65
2020/12/05 04:01:17;;;;;;;20.17;17.60;;;5.00;99.90;;;;;;5051406;28;20440;-63
2020/12/05 04:03:44;;;;;;;22.63;18.63;;;5.00;99.90;;;;;;5051705;28;20448;-64
2020/12/05 04:06:12;;;;;;;23.30;18.27;;;5.00;99.90;;;;;;5051650;28;20440;-66
2020/12/05 04:08:39;;;;;;;20.90;16.23;;;5.00;99.90;;;;;;5054109;28;20490;-65
2020/12/05 04:11:06;;;;;;;23.27;19.90;;;5.00;99.90;;;;;;5055351;28;20463;-66
2020/12/05 04:13:32;;;;;;;21.13;18.50;;;5.00;99.90;;;;;;5055724;28;20480;-66
2020/12/05 04:15:58;;;;;;;24.87;19.60;;;5.00;99.90;;;;;;5055604;28;20451;-65
2020/12/05 04:18:24;;;;;;;26.70;19.37;;;4.90;99.90;;;;;;5055515;28;20478;-65
2020/12/05 04:20:51;;;;;;;24.40;18.10;;;4.90;99.90;;;;;;5055214;28;20475;-64
2020/12/05 04:23:18;;;;;;;20.60;17.83;;;5.00;99.90;;;;;;5055396;28;20436;-64
2020/12/05 04:25:44;;;;;;;22.93;17.80;;;5.00;99.90;;;;;;5055596;28;20446;-64
2020/12/05 04:28:11;;;;;;;20.23;16.40;;;4.90;99.90;;;;;;5055154;28;20798;-65
2020/12/05 04:30:37;;;;;;;21.00;17.60;;;5.00;99.90;;;;;;5054968;28;20468;-65
2020/12/05 04:33:03;;;;;;;24.70;19.30;;;4.90;99.90;;;;;;5055203;28;20455;-65
2020/12/05 04:35:30;;;;;;;25.57;19.60;;;4.90;99.90;;;;;;5055286;28;20440;-66
2020/12/05 04:37:56;;;;;;;24.63;19.33;;;5.00;99.90;;;;;;5054973;28;20475;-65
2020/12/05 04:40:23;;;;;;;23.20;20.30;;;4.90;99.90;;;;;;5054808;28;20475;-65
2020/12/05 04:42:50;;;;;;;32.67;20.17;;;4.90;99.90;;;;;;5055086;28;20439;-65
2020/12/05 04:45:17;;;;;;;25.17;19.60;;;4.90;99.90;;;;;;5055075;28;21119;-65
2020/12/05 04:47:44;;;;;;;25.20;20.43;;;4.90;99.90;;;;;;5055151;28;20440;-65
2020/12/05 04:50:12;;;;;;;27.73;21.40;;;4.90;99.90;;;;;;5054719;28;20459;-64
2020/12/05 04:52:47;;;;;;;25.70;20.20;;;4.90;99.90;;;;;;5054883;28;20440;-65
2020/12/05 04:55:14;;;;;;;29.67;22.13;;;4.80;99.90;;;;;;5054977;28;20443;-65
2020/12/05 04:57:45;;;;;;;28.43;22.07;;;4.80;99.90;;;;;;5054646;28;20439;-65
2020/12/05 05:00:12;;;;;;;29.43;22.27;;;4.80;99.90;;;;;;5054640;28;20467;-65
2020/12/05 05:02:41;;;;;;;29.53;23.33;;;4.80;99.90;;;;;;5054678;28;20440;-64
2020/12/05 05:05:09;;;;;;;30.30;25.60;;;4.80;99.90;;;;;;5054533;28;20444;-65
2020/12/05 05:07:45;;;;;;;32.00;22.97;;;4.80;99.90;;;;;;5054605;28;20443;-65
2020/12/05 05:10:17;;;;;;;34.40;26.07;;;4.80;99.90;;;;;;5054357;28;20455;-65
2020/12/05 05:12:44;;;;;;;31.40;23.00;;;4.80;99.90;;;;;;5054444;28;20440;-65
2020/12/05 05:15:31;;;;;;;29.93;24.07;;;4.70;99.90;;;;;;5054606;28;20436;-65
2020/12/05 05:17:59;;;;;;;32.10;25.10;;;4.70;99.90;;;;;;5054269;28;20526;-65
2020/12/05 05:20:26;;;;;;;30.33;23.30;;;4.70;99.90;;;;;;5053590;28;20464;-65
2020/12/05 05:23:14;;;;;;;31.80;24.97;;;4.70;99.90;;;;;;5054241;28;20436;-63
2020/12/05 05:25:51;;;;;;;37.70;25.90;;;4.60;99.90;;;;;;5054330;28;20451;-64
2020/12/05 05:28:20;;;;;;;34.27;27.00;;;4.60;99.90;;;;;;5054201;28;20462;-64
2020/12/05 05:31:09;;;;;;;33.80;26.47;;;4.50;99.90;;;;;;5053936;28;20471;-65
2020/12/05 05:33:40;;;;;;;40.03;26.93;;;4.50;99.90;;;;;;5054340;28;20447;-64
2020/12/05 05:36:21;;;;;;;37.80;27.57;;;4.40;99.90;;;;;;5054236;28;20443;-67
2020/12/05 05:39:04;;;;;;;38.13;26.93;;;4.40;99.90;;;;;;5053984;28;20480;-65
2020/12/05 05:41:31;;;;;;;39.97;29.67;;;4.30;99.90;;;;;;5053455;28;20436;-65
2020/12/05 05:44:00;;;;;;;36.70;27.20;;;4.30;99.90;;;;;;5053779;28;20447;-67
2020/12/05 05:46:28;;;;;;;44.53;31.03;;;4.20;99.90;;;;;;5053830;28;20440;-66
2020/12/05 05:48:55;;;;;;;37.40;27.57;;;4.20;99.90;;;;;;5053595;28;20428;-66
2020/12/05 05:51:42;;;;;;;38.70;27.93;;;4.20;99.90;;;;;;5053533;28;20444;-64
2020/12/05 05:54:17;;;;;;;51.37;32.10;;;4.10;99.90;;;;;;5053544;28;20443;-64
2020/12/05 05:56:57;;;;;;;47.70;31.97;;;4.10;99.90;;;;;;5053655;28;20443;-64
2020/12/05 05:59:26;;;;;;;47.57;33.63;;;4.00;99.90;;;;;;5053401;28;20483;-63
2020/12/05 06:01:54;;;;;;;45.17;32.70;;;4.00;99.90;;;;;;5053226;28;20929;-65
2020/12/05 06:04:25;;;;;;;47.47;32.17;;;3.90;99.90;;;;;;5053297;28;20447;-64
2020/12/05 06:06:52;;;;;;;52.50;33.13;;;3.90;99.90;;;;;;5053365;28;20806;-61
2020/12/05 06:09:24;;;;;;;48.40;31.43;;;3.80;99.90;;;;;;5053179;28;20456;-64
2020/12/05 06:11:54;;;;;;;42.40;30.00;;;3.80;99.90;;;;;;5053041;28;20443;-64
2020/12/05 06:14:21;;;;;;;49.83;32.57;;;3.80;99.90;;;;;;5053282;28;20440;-62
2020/12/05 06:16:54;;;;;;;53.50;34.50;;;3.70;99.90;;;;;;5053237;28;20447;-63
2020/12/05 06:19:20;;;;;;;51.40;33.37;;;3.60;99.90;;;;;;5053134;28;20491;-62
2020/12/05 06:21:52;;;;;;;58.60;35.13;;;3.60;99.90;;;;;;5052834;28;20436;-65
2020/12/05 06:24:43;;;;;;;60.57;36.37;;;3.60;99.90;;;;;;5053100;28;20436;-63
2020/12/05 06:27:10;;;;;;;63.90;34.93;;;3.60;99.90;;;;;;5053039;28;20527;-66
2020/12/05 06:29:38;;;;;;;59.77;37.87;;;3.60;99.90;;;;;;5052678;28;20456;-61
2020/12/05 06:32:05;;;;;;;61.23;36.30;;;3.60;99.90;;;;;;5051771;28;20444;-64
2020/12/05 06:34:41;;;;;;;58.47;35.60;;;3.50;99.90;;;;;;5052719;28;20436;-64
2020/12/05 06:37:09;;;;;;;68.27;39.40;;;3.60;99.90;;;;;;5052771;28;20521;-63
2020/12/05 06:39:36;;;;;;;58.40;36.80;;;3.60;99.90;;;;;;5052302;28;20484;-64
2020/12/05 06:42:02;;;;;;;56.20;38.10;;;3.60;99.90;;;;;;5052585;28;20934;-63
2020/12/05 06:44:38;;;;;;;60.90;39.43;;;3.70;99.90;;;;;;5052861;28;20455;-64
2020/12/05 06:47:10;;;;;;;56.27;38.23;;;3.70;99.90;;;;;;5052791;28;20440;-62
2020/12/05 06:49:46;;;;;;;67.27;38.77;;;3.70;99.90;;;;;;5052245;28;20991;-64
2020/12/05 06:52:35;;;;;;;51.23;33.90;;;3.70;99.90;;;;;;5052473;28;20442;-65
2020/12/05 06:55:04;;;;;;;58.97;37.07;;;3.70;99.90;;;;;;5052354;28;20488;-64
2020/12/05 06:57:32;;;;;;;59.50;34.13;;;3.70;99.90;;;;;;5052307;28;20930;-64
2020/12/05 07:00:19;;;;;;;70.87;35.40;;;3.70;99.90;;;;;;5051963;28;20491;-65
2020/12/05 07:02:56;;;;;;;70.90;36.77;;;3.70;99.90;;;;;;5052265;28;20440;-64
2020/12/05 07:05:41;;;;;;;56.03;35.23;;;3.60;99.90;;;;;;5052232;28;20447;-64
2020/12/05 07:08:22;;;;;;;67.70;35.63;;;3.60;99.90;;;;;;5051892;28;20462;-63
2020/12/05 07:10:53;;;;;;;54.10;31.90;;;3.70;99.90;;;;;;5051892;28;20961;-64
2020/12/05 07:13:22;;;;;;;56.43;35.00;;;3.70;99.90;;;;;;5052043;28;20451;-65
2020/12/05 07:15:48;;;;;;;58.53;35.17;;;3.70;99.90;;;;;;5052186;28;20452;-63
2020/12/05 07:18:24;;;;;;;54.60;32.53;;;3.70;99.90;;;;;;5051858;28;20484;-65
2020/12/05 07:20:52;;;;;;;51.43;31.43;;;3.80;99.90;;;;;;5051689;28;20539;-64
2020/12/05 07:23:18;;;;;;;54.93;36.00;;;3.80;99.90;;;;;;5051863;28;20443;-64
2020/12/05 07:25:44;;;;;;;49.53;33.33;;;3.80;99.90;;;;;;5051929;28;20440;-63
2020/12/05 07:28:10;;;;;;;52.97;32.87;;;3.80;99.90;;;;;;5051712;28;20455;-65
2020/12/05 07:30:37;;;;;;;45.17;29.37;;;3.90;99.90;;;;;;5051455;28;20467;-65
2020/12/05 07:33:07;;;;;;;49.83;32.00;;;4.00;99.90;;;;;;5051483;28;20953;-63
2020/12/05 07:35:36;;;;;;;43.30;27.97;;;4.00;99.90;;;;;;5051767;28;20440;-65
2020/12/05 07:38:10;;;;;;;41.77;29.13;;;4.10;99.90;;;;;;5051583;28;20447;-63
2020/12/05 07:40:37;;;;;;;40.37;27.87;;;4.20;99.90;;;;;;5051686;28;20965;-66
2020/12/05 07:43:03;;;;;;;50.40;31.30;;;4.30;99.90;;;;;;5051337;28;20440;-65
2020/12/05 07:45:30;;;;;;;43.90;30.87;;;4.40;99.90;;;;;;5051439;28;20452;-63
2020/12/05 07:47:57;;;;;;;40.03;27.83;;;4.40;99.90;;;;;;5051483;28;20440;-64
2020/12/05 07:50:32;;;;;;;34.70;25.13;;;4.50;99.90;;;;;;5051282;28;20514;-64
2020/12/05 07:52:59;;;;;;;33.37;26.17;;;4.60;99.90;;;;;;5050932;28;20519;-64
2020/12/05 07:55:29;;;;;;;33.73;24.77;;;4.70;99.90;;;;;;5051338;28;20808;-64
2020/12/05 07:57:56;;;;;;;35.33;24.33;;;4.80;99.90;;;;;;5051478;28;20437;-64
2020/12/05 08:00:23;;;;;;;28.47;22.70;;;4.80;99.90;;;;;;5051060;28;20488;-64
2020/12/05 08:03:12;;;;;;;33.80;22.70;;;4.90;99.90;;;;;;5051362;28;20442;-64
2020/12/05 08:05:51;;;;;;;30.87;22.63;;;5.00;99.90;;;;;;5051343;28;20440;-65
2020/12/05 08:08:18;;;;;;;35.53;23.90;;;5.10;99.90;;;;;;5051239;28;20444;-66
2020/12/05 08:10:45;;;;;;;33.03;24.00;;;5.10;99.90;;;;;;5051082;28;20463;-64
2020/12/05 08:13:24;;;;;;;34.43;22.90;;;5.10;99.90;;;;;;5051137;28;20937;-64
2020/12/05 08:16:05;;;;;;;31.67;23.00;;;5.10;99.90;;;;;;5051229;28;20440;-65
2020/12/05 08:18:33;;;;;;;29.20;19.97;;;5.10;99.90;;;;;;5051090;28;20504;-66
2020/12/05 08:21:01;;;;;;;25.77;19.10;;;5.20;99.90;;;;;;5050970;28;20995;-65
2020/12/05 08:23:30;;;;;;;25.00;19.37;;;5.20;99.90;;;;;;5051094;28;20444;-65
2020/12/05 08:25:59;;;;;;;23.63;19.00;;;5.30;99.90;;;;;;5051133;28;20440;-65
2020/12/05 08:28:29;;;;;;;22.73;17.47;;;5.40;99.90;;;;;;5051033;28;20527;-67
2020/12/05 08:30:57;;;;;;;25.73;19.17;;;5.50;99.90;;;;;;5050802;28;20518;-67
2020/12/05 08:33:23;;;;;;;21.43;16.80;;;5.60;99.90;;;;;;5051069;28;20806;-65
2020/12/05 08:35:50;;;;;;;24.93;17.97;;;5.80;99.90;;;;;;5051088;28;20472;-66
2020/12/05 08:38:23;;;;;;;22.20;17.60;;;5.80;99.90;;;;;;5050900;28;20444;-64
2020/12/05 08:41:02;;;;;;;21.07;17.37;;;5.90;99.90;;;;;;5050563;28;20553;-65
2020/12/05 08:43:29;;;;;;;25.40;19.57;;;5.90;99.90;;;;;;5050920;28;20767;-64
2020/12/05 08:45:56;;;;;;;26.40;17.10;;;5.90;99.90;;;;;;5050973;28;20476;-64
2020/12/05 08:48:23;;;;;;;28.20;16.50;;;5.90;99.90;;;;;;5050751;28;20873;-64
2020/12/05 08:50:49;;;;;;;18.77;15.23;;;5.90;99.90;;;;;;5050688;28;20543;-66
2020/12/05 08:53:19;;;;;;;18.37;16.20;;;5.90;99.90;;;;;;5050828;28;20475;-66
2020/12/05 08:55:48;;;;;;;19.47;17.37;;;5.90;99.90;;;;;;5053622;28;20437;-67
2020/12/05 08:58:16;;;;;;;23.30;16.67;;;6.00;99.90;;;;;;5054454;28;20527;-65
2020/12/05 09:00:50;;;;;;;22.33;16.30;;;6.00;99.90;;;;;;5054342;28;20808;-64
2020/12/05 09:03:19;;;;;;;18.23;14.40;;;6.10;99.90;;;;;;5054377;28;20436;-63
2020/12/05 09:05:46;;;;;;;14.30;12.80;;;6.20;99.90;;;;;;5054557;28;20969;-63
2020/12/05 09:08:18;;;;;;;15.03;11.30;;;6.20;99.90;;;;;;5054496;28;20448;-63
2020/12/05 09:10:45;;;;;;;10.77;9.67;;;6.20;99.90;;;;;;5054310;28;20456;-61
2020/12/05 09:13:11;;;;;;;12.23;9.77;;;6.20;99.90;;;;;;5054301;28;20451;-60
2020/12/05 09:15:55;;;;;;;10.53;9.63;;;6.30;99.90;;;;;;5054424;28;20478;-64
2020/12/05 09:18:21;;;;;;;10.77;9.73;;;6.40;99.90;;;;;;5054175;28;20447;-61
2020/12/05 09:20:47;;;;;;;10.77;9.83;;;6.50;99.90;;;;;;5054173;28;20460;-62
2020/12/05 09:23:13;;;;;;;11.00;10.10;;;6.60;99.90;;;;;;5054072;28;20442;-65
2020/12/05 09:25:42;;;;;;;10.07;9.33;;;6.70;99.90;;;;;;5053864;28;20444;-64
2020/12/05 09:28:09;;;;;;;10.70;10.00;;;6.80;99.90;;;;;;5053941;28;20444;-64
2020/12/05 09:30:36;;;;;;;13.33;12.17;;;6.80;99.90;;;;;;5053656;28;20465;-61
2020/12/05 09:33:09;;;;;;;10.37;9.57;;;6.90;99.90;;;;;;5053852;28;20535;-64
2020/12/05 09:35:35;;;;;;;12.47;11.53;;;6.90;99.90;;;;;;5053779;28;20441;-65
2020/12/05 09:38:02;;;;;;;13.13;12.03;;;7.00;99.90;;;;;;5053950;28;20857;-66
2020/12/05 09:40:30;;;;;;;13.83;12.83;;;7.10;99.90;;;;;;5053409;28;20527;-66
2020/12/05 09:42:57;;;;;;;13.23;12.43;;;7.10;99.90;;;;;;5053632;28;20440;-67
2020/12/05 09:45:25;;;;;;;11.70;10.80;;;7.20;99.90;;;;;;5053659;28;20440;-64
2020/12/05 09:47:52;;;;;;;11.93;11.23;;;7.30;99.90;;;;;;5053621;28;20526;-65
2020/12/05 09:50:19;;;;;;;12.93;12.20;;;7.40;99.90;;;;;;5052944;28;20479;-64
2020/12/05 09:52:46;;;;;;;12.33;11.60;;;7.40;99.90;;;;;;5053555;28;20440;-64
2020/12/05 09:55:13;;;;;;;11.67;11.07;;;7.50;99.90;;;;;;5053553;28;20443;-64
2020/12/05 09:57:40;;;;;;;11.30;10.80;;;7.50;99.90;;;;;;5053614;28;20486;-64
2020/12/05 10:00:08;;;;;;;11.83;11.17;;;7.60;99.90;;;;;;5053215;28;20491;-64
2020/12/05 10:02:36;;;;;;;12.23;11.63;;;7.70;99.90;;;;;;5053026;28;20942;-65
2020/12/05 10:05:02;;;;;;;11.77;11.27;;;7.80;99.90;;;;;;5053321;28;20447;-64
2020/12/05 10:07:29;;;;;;;12.53;11.90;;;7.90;99.90;;;;;;5053022;28;20440;-64
2020/12/05 10:09:56;;;;;;;13.30;12.60;;;8.00;99.90;;;;;;5052972;28;20460;-63
2020/12/05 10:12:22;;;;;;;13.50;12.70;;;8.10;99.90;;;;;;5052888;28;20455;-62
2020/12/05 10:14:48;;;;;;;13.37;12.67;;;8.20;99.90;;;;;;5053024;28;20444;-62
2020/12/05 10:17:14;;;;;;;13.23;12.53;;;8.30;99.90;;;;;;5052894;28;20443;-64
2020/12/05 10:19:41;;;;;;;13.90;13.23;;;8.40;99.90;;;;;;5052595;28;20480;-63
2020/12/05 10:22:07;;;;;;;13.07;12.43;;;8.60;99.90;;;;;;5052708;28;20507;-64
2020/12/05 10:24:34;;;;;;;12.93;12.43;;;8.80;99.90;;;;;;5052891;28;20479;-63
2020/12/05 10:27:00;;;;;;;14.00;13.40;;;9.00;99.90;;;;;;5052713;28;20518;-64
2020/12/05 10:29:27;;;;;;;13.73;13.13;;;9.10;99.90;;;;;;5052687;28;20469;-65
2020/12/05 10:31:54;;;;;;;13.70;13.13;;;9.20;99.90;;;;;;5052535;28;20535;-64
2020/12/05 10:34:21;;;;;;;15.10;14.40;;;9.30;99.70;;;;;;5052729;28;20440;-63
2020/12/05 10:36:48;;;;;;;14.90;14.40;;;9.40;98.80;;;;;;5052642;28;20436;-63
2020/12/05 10:39:15;;;;;;;14.83;14.23;;;9.40;97.70;;;;;;5052357;28;21059;-61
2020/12/05 10:41:43;;;;;;;15.50;14.83;;;9.50;97.80;;;;;;5052400;28;20436;-63
2020/12/05 10:44:11;;;;;;;15.03;14.43;;;9.60;97.00;;;;;;5052474;28;20922;-64
2020/12/05 10:46:40;;;;;;;14.70;14.10;;;9.80;96.70;;;;;;5052376;28;20441;-64
2020/12/05 10:49:06;;;;;;;15.23;14.63;;;10.10;95.40;;;;;;5052392;28;20439;-65
2020/12/05 10:51:33;;;;;;;15.07;14.47;;;10.20;94.30;;;;;;5051948;28;20555;-63
2020/12/05 10:53:59;;;;;;;14.97;14.43;;;10.20;93.30;;;;;;5052391;28;20439;-65
2020/12/05 10:56:25;;;;;;;14.90;14.30;;;10.20;92.50;;;;;;5052267;28;20436;-65
2020/12/05 10:58:52;;;;;;;15.47;14.87;;;10.50;92.50;;;;;;5052151;28;20472;-65
2020/12/05 11:01:19;;;;;;;15.33;14.83;;;10.90;90.60;;;;;;5052057;28;20450;-65
2020/12/05 11:03:45;;;;;;;15.70;15.10;;;11.40;87.30;;;;;;5052074;28;20447;-65
2020/12/05 11:06:11;;;;;;;15.83;15.23;;;11.60;83.00;;;;;;5052098;28;20451;-64
2020/12/05 11:08:37;;;;;;;15.80;14.90;;;12.00;78.30;;;;;;5051891;28;20798;-64
2020/12/05 11:11:03;;;;;;;16.07;15.47;;;12.40;76.50;;;;;;5051758;28;20991;-64
2020/12/05 11:13:30;;;;;;;15.90;15.40;;;12.90;69.20;;;;;;5051949;28;20446;-65
2020/12/05 11:15:57;;;;;;;15.90;15.30;;;13.00;64.90;;;;;;5052023;28;20444;-65
2020/12/05 11:18:23;;;;;;;16.20;15.60;;;13.00;63.10;;;;;;5051270;28;20949;-63
2020/12/05 11:20:49;;;;;;;16.30;15.70;;;13.30;61.10;;;;;;5051534;28;20491;-65
2020/12/05 11:23:15;;;;;;;16.73;16.13;;;14.00;59.80;;;;;;5051705;28;20447;-65
2020/12/05 11:25:42;;;;;;;16.87;16.27;;;14.40;57.30;;;;;;5051800;28;20447;-65
2020/12/05 11:28:08;;;;;;;16.70;16.10;;;15.20;55.30;;;;;;5051685;28;20443;-66
2020/12/05 11:30:34;;;;;;;16.70;16.10;;;15.30;52.90;;;;;;5051410;28;20459;-65
2020/12/05 11:33:01;;;;;;;17.20;16.50;;;15.50;51.50;;;;;;5051612;28;20436;-65
2020/12/05 11:35:28;;;;;;;17.30;16.40;;;15.30;51.20;;;;;;5051667;28;20812;-65
2020/12/05 11:37:54;;;;;;;17.17;16.50;;;14.90;51.20;;;;;;5051764;28;20444;-64
2020/12/05 11:40:20;;;;;;;16.93;16.23;;;15.00;51.30;;;;;;5051024;28;20494;-65
2020/12/05 11:42:46;;;;;;;17.33;16.63;;;15.00;50.40;;;;;;5051319;28;20440;-66
2020/12/05 11:45:12;;;;;;;16.87;16.17;;;15.10;50.60;;;;;;5051417;28;20463;-68
2020/12/05 11:47:39;;;;;;;17.10;16.40;;;15.80;50.60;;;;;;5051324;28;20443;-68
2020/12/05 11:50:06;;;;;;;16.80;16.20;;;16.40;48.50;;;;;;5051269;28;20460;-68
2020/12/05 11:52:32;;;;;;;17.17;16.50;;;16.90;46.90;;;;;;5051325;28;20533;-65
2020/12/05 11:54:59;;;;;;;17.30;16.60;;;17.50;45.70;;;;;;5051352;28;20459;-68
2020/12/05 11:57:25;;;;;;;19.30;18.40;;;17.30;44.70;;;;;;5051477;28;20446;-68
2020/12/05 11:59:51;;;;;;;17.40;16.70;;;17.20;44.70;;;;;;5051094;28;20484;-67
2020/12/05 12:02:17;;;;;;;17.40;16.70;;;17.40;44.80;;;;;;5051197;28;20958;-65
2020/12/05 12:04:44;;;;;;;16.60;16.00;;;18.10;44.10;;;;;;5051334;28;20442;-65
2020/12/05 12:07:11;;;;;;;16.90;16.30;;;18.20;43.10;;;;;;5051251;28;20451;-68
2020/12/05 12:09:37;;;;;;;16.73;16.10;;;18.10;43.30;;;;;;5051066;28;20460;-67
2020/12/05 12:12:04;;;;;;;16.60;16.00;;;17.20;43.20;;;;;;5051123;28;20440;-64
2020/12/05 12:14:30;;;;;;;17.20;16.57;;;16.90;44.20;;;;;;5051173;28;20447;-66
2020/12/05 12:16:56;;;;;;;17.03;16.43;;;17.50;44.30;;;;;;5051075;28;20531;-67
2020/12/05 12:19:23;;;;;;;17.30;16.60;;;17.40;43.40;;;;;;5050970;28;20491;-67
2020/12/05 12:21:49;;;;;;;16.50;15.90;;;15.70;42.60;;;;;;5050802;28;20447;-66
2020/12/05 12:24:16;;;;;;;17.57;16.87;;;15.90;45.40;;;;;;5051047;28;20443;-66
2020/12/05 12:26:42;;;;;;;17.00;16.30;;;16.60;44.80;;;;;;5050717;28;20440;-64
2020/12/05 12:29:08;;;;;;;17.50;16.60;;;17.30;43.40;;;;;;5050972;28;20442;-66
2020/12/05 12:31:35;;;;;;;17.50;16.70;;;17.60;42.20;;;;;;5054784;28;20437;-66
2020/12/05 12:34:01;;;;;;;17.47;16.80;;;17.60;41.60;;;;;;5055256;28;20436;-67
2020/12/05 12:36:27;;;;;;;16.90;16.30;;;17.60;41.20;;;;;;5054987;28;20440;-68
2020/12/05 12:38:53;;;;;;;17.27;16.67;;;16.30;41.30;;;;;;5054711;28;20436;-68
2020/12/05 12:41:21;;;;;;;17.40;16.70;;;16.00;42.90;;;;;;5054733;28;20795;-64
2020/12/05 12:43:48;;;;;;;17.10;16.47;;;15.50;43.20;;;;;;5054872;28;20447;-66